Time;durP1;ratioP1;P1;durP2;ratioP2;P2;SDS_P1;SDS_P2;PMS_P1;PMS_P2;Temp;Humidity;BMP_temperature;BMP_pressure;BME280_temperature;BME280_humidity;BME280_pressure;Samples;Min_cycle;Max_cycle;Signal;HPM_P1;HPM_P2
2022/10/01 00:01:49;;;;;;;19.73;16.35;;;;;;;;;;4953021;28;20378;-60
2022/10/01 00:04:16;;;;;;;19.88;17.50;;;;;;;;;;4955740;28;20495;-60
2022/10/01 00:06:41;;;;;;;20.00;16.20;;;;;;;;;;4954030;28;20034;-60
2022/10/01 00:09:06;;;;;;;19.88;16.35;;;;;;;;;;4954516;28;20035;-60
2022/10/01 00:11:33;;;;;;;23.17;17.42;;;;;;;;;;4954936;28;20027;-61
2022/10/01 00:13:59;;;;;;;17.58;14.98;;;;;;;;;;4954043;28;20031;-59
2022/10/01 00:16:25;;;;;;;18.25;15.60;;;;;;;;;;4955142;28;20046;-60
2022/10/01 00:18:52;;;;;;;20.05;15.98;;;;;;;;;;4949766;28;20023;-60
2022/10/01 00:21:27;;;;;;;17.15;15.18;;;;;;;;;;4947986;28;20027;-60
2022/10/01 00:23:54;;;;;;;;;;;;;;;;;;4953652;28;20062;-60
2022/10/01 00:26:20;;;;;;;22.85;17.42;;;;;;;;;;4954947;28;19968;-61
2022/10/01 00:28:46;;;;;;;22.60;17.75;;;;;;;;;;4954756;28;20093;-59
2022/10/01 00:31:12;;;;;;;20.17;17.10;;;;;;;;;;4955718;28;20035;-59
2022/10/01 00:33:40;;;;;;;21.35;17.02;;;;;;;;;;4953143;28;20051;-60
2022/10/01 00:36:06;;;;;;;21.45;17.35;;;;;;;;;;4952818;28;20097;-59
2022/10/01 00:38:32;;;;;;;17.85;15.20;;;;;;;;;;4952504;28;20317;-59
2022/10/01 00:40:58;;;;;;;21.00;16.95;;;;;;;;;;4953194;28;20019;-58
2022/10/01 00:43:24;;;;;;;21.77;16.10;;;;;;;;;;4952584;28;20035;-58
2022/10/01 00:45:53;;;;;;;22.50;17.33;;;;;;;;;;4953040;28;20101;-58
2022/10/01 00:48:19;;;;;;;23.85;18.33;;;;;;;;;;4953479;28;20019;-58
2022/10/01 00:50:47;;;;;;;24.83;19.52;;;;;;;;;;4953963;28;20502;-59
2022/10/01 00:53:13;;;;;;;22.10;17.83;;;;;;;;;;4954680;28;20093;-59
2022/10/01 00:55:39;;;;;;;21.83;18.30;;;;;;;;;;4953564;28;20536;-60
2022/10/01 00:58:05;;;;;;;20.63;16.83;;;;;;;;;;4953984;28;20106;-60
2022/10/01 01:00:31;;;;;;;21.90;16.73;;;;;;;;;;4962079;23;20031;-87
2022/10/01 01:03:00;;;;;;;21.42;16.75;;;;;;;;;;4981174;28;20057;-90
2022/10/01 01:05:25;;;;;;;21.52;17.05;;;;;;;;;;4978526;28;20156;-87
2022/10/01 01:07:52;;;;;;;21.88;18.92;;;;;;;;;;4964315;23;20055;-89
2022/10/01 01:10:23;;;;;;;22.88;18.02;;;;;;;;;;4990133;23;20067;-61
2022/10/01 01:13:01;;;;;;;23.90;16.77;;;;;;;;;;4936055;28;20038;-62
2022/10/01 01:15:26;;;;;;;26.50;18.38;;;;;;;;;;4937897;28;20658;-61
2022/10/01 01:18:08;;;;;;;20.83;16.92;;;;;;;;;;4936266;28;20078;-60
2022/10/01 01:20:46;;;;;;;22.20;17.02;;;;;;;;;;4940886;28;20031;-60
2022/10/01 01:23:14;;;;;;;20.33;17.30;;;;;;;;;;4938676;28;20035;-59
2022/10/01 01:25:58;;;;;;;20.65;15.98;;;;;;;;;;4938053;28;20109;-61
2022/10/01 01:28:23;;;;;;;24.25;17.77;;;;;;;;;;4936462;28;20027;-60
2022/10/01 01:30:51;;;;;;;24.25;19.13;;;;;;;;;;4938470;28;20035;-61
2022/10/01 01:33:19;;;;;;;21.85;17.92;;;;;;;;;;4940593;28;20059;-60
2022/10/01 01:35:55;;;;;;;24.10;18.38;;;;;;;;;;4939357;28;20032;-59
2022/10/01 01:38:27;;;;;;;24.52;18.52;;;;;;;;;;4941182;28;20438;-61
2022/10/01 01:40:55;;;;;;;21.20;15.50;;;;;;;;;;4937973;28;20031;-60
2022/10/01 01:43:23;;;;;;;19.38;15.50;;;;;;;;;;4938158;28;20019;-60
2022/10/01 01:45:50;;;;;;;18.70;15.35;;;;;;;;;;4937386;28;20055;-60
2022/10/01 01:48:15;;;;;;;18.45;14.57;;;;;;;;;;4937941;28;20160;-61
2022/10/01 01:50:47;;;;;;;17.02;15.20;;;;;;;;;;4940598;28;20055;-61
2022/10/01 01:53:14;;;;;;;17.42;14.52;;;;;;;;;;4943958;28;20537;-60
2022/10/01 01:55:39;;;;;;;17.88;14.48;;;;;;;;;;4943229;28;20041;-61
2022/10/01 01:58:04;;;;;;;14.65;12.57;;;;;;;;;;4944284;28;20015;-60
2022/10/01 02:00:30;;;;;;;15.63;13.20;;;;;;;;;;4943296;28;20030;-61
2022/10/01 02:02:55;;;;;;;14.38;12.30;;;;;;;;;;4943656;28;20027;-61
2022/10/01 02:05:22;;;;;;;14.93;11.63;;;;;;;;;;4940310;28;20197;-61
2022/10/01 02:07:53;;;;;;;12.27;10.98;;;;;;;;;;4944158;28;20035;-60
2022/10/01 02:10:21;;;;;;;15.63;12.23;;;;;;;;;;4943163;28;20055;-60
2022/10/01 02:12:52;;;;;;;14.23;11.38;;;;;;;;;;4942291;28;20033;-62
2022/10/01 02:15:34;;;;;;;13.57;11.80;;;;;;;;;;4940760;28;20421;-60
2022/10/01 02:18:23;;;;;;;15.68;10.75;;;;;;;;;;4941221;28;20165;-61
2022/10/01 02:20:53;;;;;;;12.48;11.13;;;;;;;;;;4933786;28;20202;-60
2022/10/01 02:23:21;;;;;;;11.25;10.05;;;;;;;;;;4940611;28;20285;-61
2022/10/01 02:25:52;;;;;;;11.73;9.60;;;;;;;;;;4942588;28;20024;-61
2022/10/01 02:28:19;;;;;;;10.13;8.13;;;;;;;;;;4945170;28;20032;-61
2022/10/01 02:30:45;;;;;;;9.02;8.07;;;;;;;;;;4941102;28;20027;-61
2022/10/01 02:33:13;;;;;;;9.90;8.65;;;;;;;;;;4941694;28;20595;-61
2022/10/01 02:35:40;;;;;;;10.88;8.30;;;;;;;;;;4941264;28;20065;-61
2022/10/01 02:38:08;;;;;;;10.70;9.45;;;;;;;;;;4939069;28;20031;-59
2022/10/01 02:40:36;;;;;;;10.63;8.32;;;;;;;;;;4943792;28;20030;-61
2022/10/01 02:43:06;;;;;;;9.98;8.65;;;;;;;;;;4940005;28;20035;-60
2022/10/01 02:45:34;;;;;;;9.57;8.43;;;;;;;;;;4939429;28;20050;-60
2022/10/01 02:48:03;;;;;;;10.18;7.70;;;;;;;;;;4942132;28;20027;-59
2022/10/01 02:50:31;;;;;;;10.82;7.90;;;;;;;;;;4940652;28;20023;-60
2022/10/01 02:53:03;;;;;;;8.93;8.02;;;;;;;;;;4941199;28;20039;-61
2022/10/01 02:55:30;;;;;;;9.20;7.93;;;;;;;;;;4941971;28;20129;-60
2022/10/01 02:57:56;;;;;;;8.13;7.25;;;;;;;;;;4942466;28;20031;-60
2022/10/01 03:00:21;;;;;;;8.80;7.63;;;;;;;;;;4941893;28;20599;-61
2022/10/01 03:02:47;;;;;;;8.57;7.68;;;;;;;;;;4941887;28;20123;-60
2022/10/01 03:05:13;;;;;;;8.63;7.07;;;;;;;;;;4939882;28;20560;-61
2022/10/01 03:07:39;;;;;;;8.70;7.32;;;;;;;;;;4941300;28;20097;-61
2022/10/01 03:10:05;;;;;;;7.88;7.00;;;;;;;;;;4943049;28;20122;-63
2022/10/01 03:12:31;;;;;;;8.68;6.53;;;;;;;;;;4940886;28;20042;-61
2022/10/01 03:14:57;;;;;;;7.28;6.22;;;;;;;;;;4939619;28;20334;-62
2022/10/01 03:17:22;;;;;;;7.47;6.72;;;;;;;;;;4941666;28;20548;-60
2022/10/01 03:19:47;;;;;;;8.13;7.25;;;;;;;;;;4942451;28;20043;-61
2022/10/01 03:22:14;;;;;;;10.13;7.00;;;;;;;;;;4943721;28;20042;-63
2022/10/01 03:24:39;;;;;;;8.85;6.80;;;;;;;;;;4938969;28;20470;-60
2022/10/01 03:27:04;;;;;;;8.52;7.65;;;;;;;;;;4940225;28;20082;-61
2022/10/01 03:29:29;;;;;;;8.70;7.30;;;;;;;;;;4942871;28;20542;-60
2022/10/01 03:31:55;;;;;;;7.35;6.55;;;;;;;;;;4943665;28;20023;-60
2022/10/01 03:34:20;;;;;;;8.23;7.43;;;;;;;;;;4942751;28;20650;-61
2022/10/01 03:36:46;;;;;;;7.72;6.93;;;;;;;;;;4941723;28;20023;-60
2022/10/01 03:39:11;;;;;;;8.13;6.65;;;;;;;;;;4943116;28;20490;-60
2022/10/01 03:41:37;;;;;;;9.48;7.18;;;;;;;;;;4943226;28;20094;-60
2022/10/01 03:44:02;;;;;;;7.47;6.68;;;;;;;;;;4942135;28;20038;-63
2022/10/01 03:46:28;;;;;;;8.55;7.75;;;;;;;;;;4940299;28;20067;-61
2022/10/01 03:48:53;;;;;;;9.02;6.65;;;;;;;;;;4946267;28;20034;-62
2022/10/01 03:51:19;;;;;;;7.95;7.00;;;;;;;;;;4941842;28;20501;-60
2022/10/01 03:53:45;;;;;;;8.23;7.15;;;;;;;;;;4943346;28;20039;-62
2022/10/01 03:56:10;;;;;;;8.75;7.85;;;;;;;;;;4941413;28;20255;-61
2022/10/01 03:58:35;;;;;;;8.30;7.50;;;;;;;;;;4943005;28;20033;-61
2022/10/01 04:01:01;;;;;;;9.45;6.82;;;;;;;;;;4947042;28;20027;-61
2022/10/01 04:03:27;;;;;;;8.98;8.05;;;;;;;;;;4945085;28;20034;-61
2022/10/01 04:05:52;;;;;;;8.85;7.68;;;;;;;;;;4940060;28;20031;-61
2022/10/01 04:08:17;;;;;;;14.02;11.55;;;;;;;;;;4942248;28;20883;-61
2022/10/01 04:10:42;;;;;;;8.80;7.88;;;;;;;;;;4942287;28;20055;-60
2022/10/01 04:13:08;;;;;;;8.40;7.50;;;;;;;;;;4942505;28;20039;-61
2022/10/01 04:15:33;;;;;;;8.90;8.00;;;;;;;;;;4941109;28;20028;-61
2022/10/01 04:17:59;;;;;;;12.68;8.68;;;;;;;;;;4941009;28;20035;-60
2022/10/01 04:20:24;;;;;;;11.13;8.63;;;;;;;;;;4940431;28;20089;-61
2022/10/01 04:22:50;;;;;;;10.75;8.57;;;;;;;;;;4944193;28;20026;-61
2022/10/01 04:25:15;;;;;;;10.73;8.63;;;;;;;;;;4943941;28;20117;-60
2022/10/01 04:27:41;;;;;;;10.18;8.88;;;;;;;;;;4937853;28;20019;-62
2022/10/01 04:30:07;;;;;;;10.35;7.60;;;;;;;;;;4943302;28;20034;-61
2022/10/01 04:32:33;;;;;;;9.88;8.23;;;;;;;;;;4942188;28;20043;-60
2022/10/01 04:34:58;;;;;;;9.27;8.35;;;;;;;;;;4939950;28;20509;-61
2022/10/01 04:37:26;;;;;;;9.35;7.55;;;;;;;;;;4942135;28;20477;-61
2022/10/01 04:39:51;;;;;;;12.77;9.20;;;;;;;;;;4940664;28;20031;-60
2022/10/01 04:42:17;;;;;;;10.60;8.95;;;;;;;;;;4942173;28;20546;-60
2022/10/01 04:44:42;;;;;;;8.77;7.88;;;;;;;;;;4939758;28;20055;-61
2022/10/01 04:47:07;;;;;;;9.52;8.13;;;;;;;;;;4939326;28;20031;-61
2022/10/01 04:49:33;;;;;;;10.38;8.07;;;;;;;;;;4940213;28;20061;-61
2022/10/01 04:51:58;;;;;;;8.80;7.80;;;;;;;;;;4942295;28;20453;-64
2022/10/01 04:54:23;;;;;;;10.05;9.02;;;;;;;;;;4944204;28;20202;-61
2022/10/01 04:56:49;;;;;;;10.80;8.77;;;;;;;;;;4940663;28;20019;-61
2022/10/01 04:59:14;;;;;;;8.90;8.00;;;;;;;;;;4940247;28;20043;-62
2022/10/01 05:01:40;;;;;;;9.45;8.45;;;;;;;;;;4942437;28;20107;-61
2022/10/01 05:04:06;;;;;;;9.45;8.48;;;;;;;;;;4939574;28;20040;-61
2022/10/01 05:06:31;;;;;;;10.40;9.30;;;;;;;;;;4938901;28;20801;-61
2022/10/01 05:08:56;;;;;;;12.75;9.48;;;;;;;;;;4937831;28;20439;-61
2022/10/01 05:11:25;;;;;;;11.30;10.18;;;;;;;;;;4939287;28;20095;-61
2022/10/01 05:13:50;;;;;;;12.13;10.73;;;;;;;;;;4937692;28;20086;-61
2022/10/01 05:16:15;;;;;;;10.38;9.23;;;;;;;;;;4939990;28;20565;-60
2022/10/01 05:18:42;;;;;;;11.35;9.10;;;;;;;;;;4940838;28;20078;-61
2022/10/01 05:21:10;;;;;;;12.68;9.68;;;;;;;;;;4939960;28;20125;-63
2022/10/01 05:23:35;;;;;;;11.73;10.52;;;;;;;;;;4939208;28;20553;-62
2022/10/01 05:26:03;;;;;;;11.50;9.63;;;;;;;;;;4935423;28;20031;-61
2022/10/01 05:28:28;;;;;;;10.95;9.85;;;;;;;;;;4938897;28;20023;-63
2022/10/01 05:30:53;;;;;;;10.27;8.98;;;;;;;;;;4941249;28;20023;-62
2022/10/01 05:33:18;;;;;;;17.15;12.60;;;;;;;;;;4941387;28;20039;-62
2022/10/01 05:35:44;;;;;;;16.35;11.85;;;;;;;;;;4938098;28;20459;-61
2022/10/01 05:38:09;;;;;;;14.80;11.20;;;;;;;;;;4939570;28;20027;-61
2022/10/01 05:40:34;;;;;;;12.88;10.38;;;;;;;;;;4940117;28;20077;-61
2022/10/01 05:43:01;;;;;;;12.10;10.00;;;;;;;;;;4939924;28;20147;-61
2022/10/01 05:45:27;;;;;;;10.60;9.15;;;;;;;;;;4944461;28;20036;-61
2022/10/01 05:48:00;;;;;;;12.73;10.85;;;;;;;;;;4939057;28;20024;-61
2022/10/01 05:50:26;;;;;;;14.32;10.55;;;;;;;;;;4938814;28;20545;-61
2022/10/01 05:52:52;;;;;;;18.45;13.00;;;;;;;;;;4939890;28;20035;-61
2022/10/01 05:55:17;;;;;;;16.05;13.93;;;;;;;;;;4939488;28;20579;-62
2022/10/01 05:57:42;;;;;;;15.48;13.38;;;;;;;;;;4939017;28;20525;-62
2022/10/01 06:00:08;;;;;;;13.05;11.65;;;;;;;;;;4940369;28;20028;-61
2022/10/01 06:02:33;;;;;;;13.05;10.13;;;;;;;;;;4940534;28;20040;-61
2022/10/01 06:04:58;;;;;;;12.57;10.88;;;;;;;;;;4938410;28;20158;-61
2022/10/01 06:07:24;;;;;;;11.25;9.75;;;;;;;;;;4938926;28;20038;-63
2022/10/01 06:09:49;;;;;;;13.32;9.77;;;;;;;;;;4939110;28;20036;-61
2022/10/01 06:12:15;;;;;;;13.35;10.80;;;;;;;;;;4938811;28;20576;-62
2022/10/01 06:14:41;;;;;;;13.90;10.65;;;;;;;;;;4938402;28;20190;-61
2022/10/01 06:17:06;;;;;;;12.50;10.52;;;;;;;;;;4937000;28;20031;-61
2022/10/01 06:19:31;;;;;;;12.30;10.18;;;;;;;;;;4938555;28;20086;-61
2022/10/01 06:21:56;;;;;;;10.55;8.68;;;;;;;;;;4939047;28;20030;-61
2022/10/01 06:24:22;;;;;;;13.35;8.75;;;;;;;;;;4940454;28;20471;-62
2022/10/01 06:26:48;;;;;;;12.50;9.00;;;;;;;;;;4938853;28;20508;-61
2022/10/01 06:29:13;;;;;;;9.38;7.97;;;;;;;;;;4941802;28;20020;-61
2022/10/01 06:31:38;;;;;;;9.93;7.82;;;;;;;;;;4938519;28;20031;-60
2022/10/01 06:34:03;;;;;;;11.75;9.32;;;;;;;;;;4936682;28;20035;-61
2022/10/01 06:36:29;;;;;;;10.18;8.40;;;;;;;;;;4934601;28;20122;-61
2022/10/01 06:38:54;;;;;;;9.80;8.65;;;;;;;;;;4940501;28;20089;-63
2022/10/01 06:41:19;;;;;;;13.13;9.75;;;;;;;;;;4941849;28;20355;-62
2022/10/01 06:43:47;;;;;;;12.45;8.88;;;;;;;;;;4944248;28;20576;-62
2022/10/01 06:46:12;;;;;;;9.82;7.68;;;;;;;;;;4944837;28;20023;-62
2022/10/01 06:48:37;;;;;;;9.85;7.88;;;;;;;;;;4944695;28;20082;-61
2022/10/01 06:51:03;;;;;;;9.60;8.13;;;;;;;;;;4942797;28;20474;-61
2022/10/01 06:53:28;;;;;;;12.60;8.77;;;;;;;;;;4942878;28;20031;-60
2022/10/01 06:55:54;;;;;;;8.27;6.82;;;;;;;;;;4942355;28;20573;-61
2022/10/01 06:58:20;;;;;;;7.85;7.15;;;;;;;;;;4941503;28;20082;-61
2022/10/01 07:00:46;;;;;;;7.90;7.10;;;;;;;;;;4943459;28;20560;-61
2022/10/01 07:03:16;;;;;;;9.60;8.50;;;;;;;;;;4942602;28;20031;-62
2022/10/01 07:05:41;;;;;;;8.02;7.25;;;;;;;;;;4938562;28;20035;-61
2022/10/01 07:08:07;;;;;;;7.85;7.05;;;;;;;;;;4939201;28;20646;-62
2022/10/01 07:10:34;;;;;;;8.90;8.10;;;;;;;;;;4940031;28;20562;-60
2022/10/01 07:13:06;;;;;;;8.38;7.47;;;;;;;;;;4941076;28;20038;-61
2022/10/01 07:15:32;;;;;;;8.52;7.72;;;;;;;;;;4940810;28;20067;-61
2022/10/01 07:17:57;;;;;;;8.10;7.30;;;;;;;;;;4944166;28;20126;-60
2022/10/01 07:20:22;;;;;;;7.40;6.70;;;;;;;;;;4940367;28;20034;-60
2022/10/01 07:22:47;;;;;;;9.07;7.20;;;;;;;;;;4939911;28;20026;-60
2022/10/01 07:25:13;;;;;;;8.18;7.32;;;;;;;;;;4944023;28;20790;-60
2022/10/01 07:27:38;;;;;;;6.38;5.88;;;;;;;;;;4940729;28;20403;-61
2022/10/01 07:30:04;;;;;;;7.65;6.63;;;;;;;;;;4942186;28;20059;-60
2022/10/01 07:32:30;;;;;;;8.27;7.00;;;;;;;;;;4941508;28;20116;-60
2022/10/01 07:34:56;;;;;;;8.25;6.95;;;;;;;;;;4943137;28;20710;-61
2022/10/01 07:37:21;;;;;;;7.53;6.82;;;;;;;;;;4939339;28;20325;-60
2022/10/01 07:39:47;;;;;;;8.45;7.65;;;;;;;;;;4938579;28;20038;-60
2022/10/01 07:42:12;;;;;;;8.07;7.35;;;;;;;;;;4941137;28;20377;-61
2022/10/01 07:44:37;;;;;;;8.23;7.28;;;;;;;;;;4940130;28;20608;-61
2022/10/01 07:47:02;;;;;;;7.38;6.68;;;;;;;;;;4940982;28;20035;-61
2022/10/01 07:49:28;;;;;;;8.02;7.22;;;;;;;;;;4939079;28;20091;-62
2022/10/01 07:51:53;;;;;;;7.20;6.60;;;;;;;;;;4940142;28;20150;-61
2022/10/01 07:54:20;;;;;;;7.55;6.85;;;;;;;;;;4940443;28;20131;-61
2022/10/01 07:56:47;;;;;;;5.90;5.40;;;;;;;;;;4938710;28;20018;-61
2022/10/01 07:59:12;;;;;;;6.55;5.90;;;;;;;;;;4954840;28;20031;-61
2022/10/01 08:01:37;;;;;;;6.45;5.95;;;;;;;;;;4940340;28;20087;-60
2022/10/01 08:05:16;;;;;;;6.90;6.30;;;;;;;;;;4942776;28;20032;-60
2022/10/01 08:06:49;;;;;;;6.05;5.55;;;;;;;;;;4939993;28;20116;-62
2022/10/01 08:09:14;;;;;;;6.53;5.93;;;;;;;;;;4944792;28;20490;-61
2022/10/01 08:11:40;;;;;;;5.47;4.97;;;;;;;;;;4940312;28;20121;-62
2022/10/01 08:14:05;;;;;;;5.03;4.57;;;;;;;;;;4942285;28;20035;-63
2022/10/01 08:16:33;;;;;;;5.80;5.30;;;;;;;;;;4941214;28;20027;-61
2022/10/01 08:18:58;;;;;;;5.03;4.63;;;;;;;;;;4939934;28;20101;-61
2022/10/01 08:21:24;;;;;;;5.38;4.97;;;;;;;;;;4943580;28;20031;-61
2022/10/01 08:23:49;;;;;;;4.47;4.18;;;;;;;;;;4941428;28;20059;-61
2022/10/01 08:26:15;;;;;;;5.03;4.63;;;;;;;;;;4933756;28;20550;-61
2022/10/01 08:28:40;;;;;;;5.82;5.25;;;;;;;;;;4940169;28;20164;-61
2022/10/01 08:31:06;;;;;;;7.00;4.78;;;;;;;;;;4941479;28;20027;-61
2022/10/01 08:33:31;;;;;;;5.88;5.28;;;;;;;;;;4942782;28;21000;-61
2022/10/01 08:35:59;;;;;;;5.93;5.30;;;;;;;;;;4939323;28;20027;-62
2022/10/01 08:38:25;;;;;;;5.80;5.30;;;;;;;;;;4938433;28;20070;-60
2022/10/01 08:40:50;;;;;;;5.65;5.20;;;;;;;;;;4939797;28;20114;-62
2022/10/01 08:43:27;;;;;;;6.60;6.07;;;;;;;;;;4940863;28;20149;-65
2022/10/01 08:45:58;;;;;;;6.35;5.85;;;;;;;;;;4941770;28;20035;-62
2022/10/01 08:48:30;;;;;;;6.00;5.40;;;;;;;;;;4939272;28;20333;-63
2022/10/01 08:51:06;;;;;;;6.28;5.78;;;;;;;;;;4941626;28;20110;-63
2022/10/01 08:53:55;;;;;;;7.50;6.90;;;;;;;;;;4939127;28;20033;-64
2022/10/01 08:56:22;;;;;;;7.70;7.03;;;;;;;;;;4931663;28;20063;-63
2022/10/01 08:58:49;;;;;;;7.95;7.25;;;;;;;;;;4939465;28;20044;-64
2022/10/01 09:01:15;;;;;;;8.00;7.28;;;;;;;;;;4939338;28;20019;-63
2022/10/01 09:03:40;;;;;;;9.63;8.70;;;;;;;;;;4940203;28;20031;-65
2022/10/01 09:06:18;;;;;;;8.63;7.75;;;;;;;;;;4940185;28;20556;-67
2022/10/01 09:08:56;;;;;;;8.75;7.88;;;;;;;;;;4938024;28;20153;-62
2022/10/01 09:11:28;;;;;;;9.30;8.40;;;;;;;;;;4940474;28;20075;-65
2022/10/01 09:14:25;;;;;;;7.93;7.13;;;;;;;;;;4939646;28;20146;-62
2022/10/01 09:17:06;;;;;;;8.90;7.70;;;;;;;;;;4910541;28;20458;-62
2022/10/01 09:19:34;;;;;;;8.93;8.02;;;;;;;;;;4940758;28;20023;-63
2022/10/01 09:22:04;;;;;;;7.72;7.03;;;;;;;;;;4939497;28;20454;-63
2022/10/01 09:24:42;;;;;;;9.43;8.52;;;;;;;;;;4939414;28;20304;-63
2022/10/01 09:27:10;;;;;;;9.02;8.23;;;;;;;;;;4940029;28;20655;-61
2022/10/01 09:29:39;;;;;;;8.60;7.80;;;;;;;;;;4940790;28;20019;-63
2022/10/01 09:32:05;;;;;;;10.10;8.48;;;;;;;;;;4939148;28;20023;-63
2022/10/01 09:34:38;;;;;;;10.15;9.15;;;;;;;;;;4940692;28;20042;-63
2022/10/01 09:37:13;;;;;;;8.43;7.63;;;;;;;;;;4940177;28;20474;-62
2022/10/01 09:39:47;;;;;;;8.80;8.00;;;;;;;;;;4941213;28;20268;-63
2022/10/01 09:42:13;;;;;;;10.00;9.00;;;;;;;;;;4938845;28;20051;-63
2022/10/01 09:44:38;;;;;;;9.52;8.63;;;;;;;;;;4938309;28;20034;-63
2022/10/01 09:47:14;;;;;;;10.73;9.38;;;;;;;;;;4939248;28;20658;-63
2022/10/01 09:49:42;;;;;;;10.77;9.77;;;;;;;;;;4941129;28;20044;-63
2022/10/01 09:52:27;;;;;;;8.27;7.57;;;;;;;;;;4941532;28;20032;-62
2022/10/01 09:54:56;;;;;;;8.87;7.97;;;;;;;;;;4941371;28;20019;-62
2022/10/01 09:57:23;;;;;;;10.05;9.05;;;;;;;;;;4939024;28;20035;-62
2022/10/01 10:00:00;;;;;;;9.32;8.43;;;;;;;;;;4941116;28;20486;-63
2022/10/01 10:02:31;;;;;;;15.25;13.15;;;;;;;;;;4939403;28;20814;-62
2022/10/01 10:04:59;;;;;;;11.88;10.65;;;;;;;;;;4937681;28;20035;-63
2022/10/01 10:07:24;;;;;;;12.20;10.55;;;;;;;;;;4938292;28;20036;-61
2022/10/01 10:09:50;;;;;;;10.80;9.80;;;;;;;;;;4940379;28;20030;-63
2022/10/01 10:12:25;;;;;;;10.13;9.23;;;;;;;;;;4942911;28;20509;-63
2022/10/01 10:14:54;;;;;;;11.27;9.82;;;;;;;;;;4947123;28;20138;-63
2022/10/01 10:17:20;;;;;;;12.27;10.98;;;;;;;;;;4944770;28;20022;-63
2022/10/01 10:19:50;;;;;;;12.32;9.80;;;;;;;;;;4942558;28;20027;-63
2022/10/01 10:22:25;;;;;;;14.82;13.13;;;;;;;;;;4941612;28;20043;-62
2022/10/01 10:24:52;;;;;;;13.30;10.93;;;;;;;;;;4945041;28;20027;-61
2022/10/01 10:27:25;;;;;;;15.52;12.40;;;;;;;;;;4944442;28;20661;-64
2022/10/01 10:29:59;;;;;;;11.07;9.98;;;;;;;;;;4943833;28;20024;-62
2022/10/01 10:32:25;;;;;;;12.03;10.80;;;;;;;;;;4942421;28;20027;-61
2022/10/01 10:34:51;;;;;;;9.93;8.93;;;;;;;;;;4939591;28;20031;-62
2022/10/01 10:37:23;;;;;;;12.00;10.80;;;;;;;;;;4941005;28;20020;-61
2022/10/01 10:39:50;;;;;;;11.20;9.93;;;;;;;;;;4941851;28;20061;-62
2022/10/01 10:42:15;;;;;;;14.45;11.40;;;;;;;;;;4943703;28;20417;-62
2022/10/01 10:44:42;;;;;;;10.27;9.18;;;;;;;;;;4943697;28;20031;-62
2022/10/01 10:47:10;;;;;;;11.73;9.68;;;;;;;;;;4944897;28;20411;-64
2022/10/01 10:49:46;;;;;;;10.13;9.13;;;;;;;;;;4942273;28;20438;-62
2022/10/01 10:52:32;;;;;;;12.40;9.75;;;;;;;;;;4942459;28;20796;-61
2022/10/01 10:54:58;;;;;;;9.75;8.73;;;;;;;;;;4949207;28;20038;-62
2022/10/01 10:57:26;;;;;;;8.27;7.50;;;;;;;;;;4943623;28;20884;-61
2022/10/01 10:59:56;;;;;;;10.25;8.07;;;;;;;;;;4942449;28;20031;-62
2022/10/01 11:02:24;;;;;;;8.77;7.93;;;;;;;;;;4945076;28;20023;-63
2022/10/01 11:04:49;;;;;;;9.15;8.35;;;;;;;;;;4943371;28;20070;-62
2022/10/01 11:07:18;;;;;;;9.40;8.50;;;;;;;;;;4943045;28;20119;-62
2022/10/01 11:09:51;;;;;;;8.27;7.47;;;;;;;;;;4942801;28;20033;-62
2022/10/01 11:12:29;;;;;;;8.63;7.72;;;;;;;;;;4946121;28;20130;-62
2022/10/01 11:15:06;;;;;;;8.48;7.70;;;;;;;;;;4943894;28;20039;-63
2022/10/01 11:17:39;;;;;;;9.48;8.20;;;;;;;;;;4943061;28;20024;-63
2022/10/01 11:20:23;;;;;;;9.75;8.75;;;;;;;;;;4943204;28;20153;-63
2022/10/01 11:22:51;;;;;;;10.02;8.95;;;;;;;;;;4943358;28;20118;-62
2022/10/01 11:25:16;;;;;;;12.65;9.10;;;;;;;;;;4942708;28;20399;-63
2022/10/01 11:28:00;;;;;;;9.13;7.30;;;;;;;;;;4939752;28;20050;-63
2022/10/01 11:30:28;;;;;;;8.15;7.35;;;;;;;;;;4939837;28;20410;-63
2022/10/01 11:33:06;;;;;;;8.82;8.02;;;;;;;;;;4942982;28;20046;-63
2022/10/01 11:35:41;;;;;;;8.40;7.60;;;;;;;;;;4942802;28;20046;-63
2022/10/01 11:38:06;;;;;;;7.70;7.10;;;;;;;;;;4941070;28;20060;-62
2022/10/01 11:40:33;;;;;;;8.20;7.40;;;;;;;;;;4943431;28;20553;-64
2022/10/01 11:43:02;;;;;;;8.30;6.55;;;;;;;;;;4943476;28;20597;-63
2022/10/01 11:45:30;;;;;;;8.27;7.57;;;;;;;;;;4943107;28;20557;-63
2022/10/01 11:48:00;;;;;;;7.90;7.30;;;;;;;;;;4941205;28;20019;-63
2022/10/01 11:50:27;;;;;;;7.60;6.90;;;;;;;;;;4941009;28;20026;-63
2022/10/01 11:52:58;;;;;;;7.22;6.45;;;;;;;;;;4941738;28;20050;-63
2022/10/01 11:58:53;;;;;;;8.95;6.65;;;;;;;;;;4939276;28;20129;-63
2022/10/01 12:01:33;;;;;;;7.32;6.47;;;;;;;;;;4941842;28;20055;-64
2022/10/01 12:04:18;;;;;;;7.13;6.43;;;;;;;;;;4942556;28;20321;-63
2022/10/01 12:07:01;;;;;;;6.83;6.13;;;;;;;;;;4940822;28;20054;-64
2022/10/01 12:09:46;;;;;;;9.10;7.60;;;;;;;;;;4936100;28;20136;-62
2022/10/01 12:12:16;;;;;;;7.07;6.40;;;;;;;;;;4941052;28;20059;-62
2022/10/01 12:14:47;;;;;;;7.97;6.95;;;;;;;;;;4939227;28;20094;-64
2022/10/01 12:17:24;;;;;;;8.40;7.60;;;;;;;;;;4941487;28;20126;-62
2022/10/01 12:19:52;;;;;;;9.25;8.35;;;;;;;;;;4938946;28;20055;-63
2022/10/01 12:22:26;;;;;;;8.15;7.45;;;;;;;;;;4941712;28;20042;-62
2022/10/01 12:24:52;;;;;;;7.95;7.15;;;;;;;;;;4943137;28;20030;-62
2022/10/01 12:27:23;;;;;;;8.30;7.60;;;;;;;;;;4943495;28;20089;-65
2022/10/01 12:29:48;;;;;;;9.10;7.32;;;;;;;;;;4942257;28;20031;-62
2022/10/01 12:32:20;;;;;;;7.07;6.43;;;;;;;;;;4940728;28;20140;-62
2022/10/01 12:34:45;;;;;;;8.27;6.45;;;;;;;;;;4941556;28;20039;-63
2022/10/01 12:37:17;;;;;;;7.50;6.88;;;;;;;;;;4940200;28;20438;-64
2022/10/01 12:39:42;;;;;;;7.68;6.93;;;;;;;;;;4943785;28;20646;-64
2022/10/01 12:42:16;;;;;;;6.97;6.38;;;;;;;;;;4943128;28;20565;-63
2022/10/01 12:44:55;;;;;;;7.00;5.82;;;;;;;;;;4940811;28;20030;-63
2022/10/01 12:48:00;;;;;;;5.40;4.90;;;;;;;;;;4942706;28;20031;-64
2022/10/01 12:50:25;;;;;;;5.45;4.95;;;;;;;;;;4867156;29;20051;-63
2022/10/01 12:52:50;;;;;;;5.55;5.07;;;;;;;;;;4866977;29;20036;-63
2022/10/01 12:55:33;;;;;;;5.25;4.80;;;;;;;;;;4870863;29;20559;-62
2022/10/01 12:58:08;;;;;;;5.95;5.20;;;;;;;;;;4871175;29;20081;-63
2022/10/01 13:00:39;;;;;;;6.40;5.78;;;;;;;;;;4870324;29;20088;-63
2022/10/01 13:03:07;;;;;;;6.65;5.97;;;;;;;;;;4867382;29;20758;-63
2022/10/01 13:05:51;;;;;;;5.90;5.40;;;;;;;;;;4866345;29;20763;-63
2022/10/01 13:08:16;;;;;;;5.55;4.97;;;;;;;;;;4869113;29;20092;-64
2022/10/01 13:10:58;;;;;;;5.63;5.13;;;;;;;;;;4868521;29;20060;-63
2022/10/01 13:13:31;;;;;;;5.25;4.85;;;;;;;;;;4869655;29;20037;-63
2022/10/01 13:16:09;;;;;;;4.93;4.53;;;;;;;;;;4868399;29;20045;-62
2022/10/01 13:18:44;;;;;;;6.00;5.45;;;;;;;;;;4867375;29;20056;-63
2022/10/01 13:21:09;;;;;;;;;;;;;;;;;;4904327;28;20039;-62
2022/10/01 13:23:38;;;;;;;5.40;4.90;;;;;;;;;;4939999;28;20285;-62
2022/10/01 13:26:18;;;;;;;4.30;3.90;;;;;;;;;;4943412;28;20361;-62
2022/10/01 13:28:47;;;;;;;5.38;3.90;;;;;;;;;;4938741;28;20435;-62
2022/10/01 13:31:14;;;;;;;4.45;4.05;;;;;;;;;;4940133;28;20379;-63
2022/10/01 13:33:39;;;;;;;4.30;3.92;;;;;;;;;;4940901;28;20050;-62
2022/10/01 13:36:05;;;;;;;4.40;4.10;;;;;;;;;;4941609;28;20043;-62
2022/10/01 13:38:36;;;;;;;4.63;4.22;;;;;;;;;;4941370;28;20439;-62
2022/10/01 13:41:03;;;;;;;4.70;4.35;;;;;;;;;;4942170;28;20032;-61
2022/10/01 13:43:30;;;;;;;9.25;5.03;;;;;;;;;;4942237;28;20027;-62
2022/10/01 13:46:03;;;;;;;7.45;4.45;;;;;;;;;;4942463;28;20062;-61
2022/10/01 13:48:34;;;;;;;4.30;3.90;;;;;;;;;;4941015;28;20027;-62
2022/10/01 13:51:07;;;;;;;4.63;4.22;;;;;;;;;;4941951;28;20032;-62
2022/10/01 13:53:36;;;;;;;5.85;5.25;;;;;;;;;;4942294;28;20047;-62
2022/10/01 13:56:01;;;;;;;5.88;5.32;;;;;;;;;;4941561;28;20039;-62
2022/10/01 13:58:31;;;;;;;4.47;4.18;;;;;;;;;;4937995;28;20047;-63
2022/10/01 14:00:58;;;;;;;5.28;4.28;;;;;;;;;;4939354;28;20019;-63
2022/10/01 14:03:38;;;;;;;5.47;5.00;;;;;;;;;;4940438;28;20479;-62
2022/10/01 14:06:05;;;;;;;4.70;4.30;;;;;;;;;;4943033;28;20051;-65
2022/10/01 14:08:30;;;;;;;4.68;4.28;;;;;;;;;;4939953;28;20125;-63
2022/10/01 14:16:30;;;;;;;4.45;4.07;;;;;;;;;;4940194;28;20039;-63
2022/10/01 14:18:55;;;;;;;3.83;3.53;;;;;;;;;;4940153;28;20061;-63
2022/10/01 14:21:32;;;;;;;4.75;4.35;;;;;;;;;;4940200;28;20089;-63
2022/10/01 14:24:02;;;;;;;3.88;3.58;;;;;;;;;;4943080;28;20049;-61
2022/10/01 14:26:30;;;;;;;6.70;4.30;;;;;;;;;;4936911;28;20039;-63
2022/10/01 14:29:10;;;;;;;4.97;4.57;;;;;;;;;;4938892;28;20019;-64
2022/10/01 14:31:43;;;;;;;5.53;4.20;;;;;;;;;;4939932;28;20035;-62
2022/10/01 14:34:29;;;;;;;3.58;3.38;;;;;;;;;;4940620;28;20404;-62
2022/10/01 14:36:55;;;;;;;1.95;1.85;;;;;;;;;;4942646;28;20129;-63
2022/10/01 14:39:21;;;;;;;1.30;1.20;;;;;;;;;;4939384;28;20042;-63
2022/10/01 14:41:48;;;;;;;3.78;3.47;;;;;;;;;;4940141;28;20508;-63
2022/10/01 14:44:17;;;;;;;31.02;22.52;;;;;;;;;;4940371;28;20782;-63
2022/10/01 14:46:43;;;;;;;30.77;25.20;;;;;;;;;;4940484;28;20105;-62
2022/10/01 14:49:17;;;;;;;10.60;9.50;;;;;;;;;;4941981;28;20125;-62
2022/10/01 14:51:49;;;;;;;3.55;3.33;;;;;;;;;;4939678;28;20312;-62
2022/10/01 14:54:14;;;;;;;1.90;1.70;;;;;;;;;;4940749;28;20046;-63